createdAt,value
2022-09-09T00:01:23.560Z,397.54
2022-09-09T00:06:30.814Z,397.55
2022-09-09T00:11:38.091Z,398.21
2022-09-09T00:16:45.415Z,398.06
2022-09-09T00:21:52.651Z,397.65
2022-09-09T00:26:59.921Z,398.30
2022-09-09T00:32:07.147Z,398.68
2022-09-09T00:37:14.351Z,399.25
2022-09-09T00:42:21.576Z,399.64
2022-09-09T00:47:28.860Z,397.30
2022-09-09T00:52:36.062Z,398.89
2022-09-09T00:57:43.360Z,398.32
2022-09-09T01:02:50.736Z,398.38
2022-09-09T01:07:58.513Z,399.42
2022-09-09T01:13:05.238Z,398.99
2022-09-09T01:18:12.508Z,399.48
2022-09-09T01:23:19.732Z,400.18
2022-09-09T01:28:27.235Z,399.89
2022-09-09T01:33:34.462Z,400.53
2022-09-09T01:38:41.963Z,400.64
2022-09-09T01:43:49.206Z,400.79
2022-09-09T01:48:56.393Z,400.25
2022-09-09T01:54:03.676Z,400.76
2022-09-09T01:59:10.898Z,400.07
2022-09-09T02:04:18.164Z,400.81
2022-09-09T02:09:25.330Z,401.11
2022-09-09T02:14:32.512Z,401.28
2022-09-09T02:19:39.730Z,400.44
2022-09-09T02:24:46.968Z,399.61
2022-09-09T02:29:54.157Z,399.66
2022-09-09T02:35:01.370Z,399.68
2022-09-09T02:40:08.616Z,399.71
2022-09-09T02:45:15.672Z,399.97
2022-09-09T02:50:22.936Z,399.51
2022-09-09T02:55:30.093Z,399.64
2022-09-09T03:00:37.276Z,399.82
2022-09-09T03:05:44.471Z,399.49
2022-09-09T03:10:51.658Z,398.99
2022-09-09T03:15:58.825Z,399.11
2022-09-09T03:21:06.040Z,399.31
2022-09-09T03:26:13.286Z,398.97
2022-09-09T03:31:20.621Z,398.91
2022-09-09T03:36:27.717Z,398.65
2022-09-09T03:41:34.874Z,398.12
2022-09-09T03:46:42.151Z,397.93
2022-09-09T03:51:49.351Z,398.19
2022-09-09T03:56:56.515Z,398.72
2022-09-09T04:02:03.796Z,398.90
2022-09-09T04:07:10.936Z,398.18
2022-09-09T04:12:18.178Z,397.81
2022-09-09T04:17:25.353Z,397.80
2022-09-09T04:22:32.606Z,397.42
2022-09-09T04:27:39.817Z,397.16
2022-09-09T04:32:47.012Z,396.69
2022-09-09T04:37:54.206Z,397.32
2022-09-09T04:43:01.382Z,396.47
2022-09-09T04:48:08.556Z,396.33
2022-09-09T04:53:15.769Z,396.59
2022-09-09T04:58:22.925Z,397.30
2022-09-09T05:03:30.111Z,397.00
2022-09-09T05:08:37.506Z,396.29
2022-09-09T05:13:44.474Z,396.20
2022-09-09T05:18:51.666Z,395.28
2022-09-09T05:23:58.942Z,394.99
2022-09-09T05:29:06.140Z,394.68
2022-09-09T05:34:13.322Z,394.02
2022-09-09T05:39:20.563Z,393.74
2022-09-09T05:44:27.797Z,393.62
2022-09-09T05:49:34.977Z,393.37
2022-09-09T05:54:42.197Z,393.05
2022-09-09T05:59:49.333Z,393.41
2022-09-09T06:04:59.969Z,393.17
2022-09-09T06:10:03.733Z,393.60
2022-09-09T06:15:10.897Z,393.41
2022-09-09T06:20:18.088Z,393.55
2022-09-09T06:25:25.716Z,392.95
2022-09-09T06:30:32.857Z,393.14
2022-09-09T06:35:40.044Z,393.25
2022-09-09T06:40:47.323Z,393.33
2022-09-09T06:45:54.515Z,393.02
2022-09-09T06:51:01.693Z,393.27
2022-09-09T06:56:08.926Z,393.34
2022-09-09T07:01:16.222Z,393.38
2022-09-09T07:06:23.359Z,393.36
2022-09-09T07:11:30.572Z,392.90
2022-09-09T07:16:37.742Z,392.57
2022-09-09T07:21:44.977Z,392.60
2022-09-09T07:26:52.205Z,392.23
2022-09-09T07:31:59.401Z,392.08
2022-09-09T07:37:06.586Z,391.83
2022-09-09T07:42:13.836Z,391.98
2022-09-09T07:47:21.024Z,392.00
2022-09-09T07:52:28.303Z,392.29
2022-09-09T07:57:35.446Z,391.88
2022-09-09T08:02:42.637Z,390.87
2022-09-09T08:07:49.775Z,390.30
2022-09-09T08:13:16.965Z,389.79
2022-09-09T08:18:04.571Z,388.68
2022-09-09T08:23:11.768Z,388.04
2022-09-09T08:28:19.031Z,386.70
2022-09-09T08:33:26.217Z,387.15
2022-09-09T08:38:33.385Z,386.38
2022-09-09T08:43:40.594Z,385.76
2022-09-09T08:48:47.773Z,385.33
2022-09-09T08:53:59.554Z,384.37
2022-09-09T08:59:02.259Z,384.63
2022-09-09T09:04:09.691Z,384.87
2022-09-09T09:09:16.728Z,385.08
2022-09-09T09:14:24.006Z,385.43
2022-09-09T09:19:31.120Z,385.23
2022-09-09T09:24:38.344Z,385.05
2022-09-09T09:30:03.776Z,384.97
2022-09-09T09:34:52.747Z,384.70
2022-09-09T09:45:07.185Z,383.97
2022-09-09T09:50:14.453Z,384.12
2022-09-09T09:55:21.726Z,384.43
2022-09-09T10:00:29.031Z,384.52
2022-09-09T10:05:36.492Z,384.36
2022-09-09T10:10:47.860Z,384.91
2022-09-09T10:15:50.800Z,385.50
2022-09-09T10:20:58.008Z,385.75
2022-09-09T10:26:05.228Z,385.90
2022-09-09T10:31:12.579Z,386.48
2022-09-09T10:36:19.797Z,387.16
2022-09-09T10:41:27.063Z,386.91
2022-09-09T10:46:34.425Z,387.02
2022-09-09T10:51:42.432Z,387.28
2022-09-09T10:56:48.771Z,387.47
2022-09-09T11:01:56.116Z,387.61
2022-09-09T11:07:03.333Z,387.88
2022-09-09T11:12:10.711Z,389.26
2022-09-09T11:17:18.581Z,390.09
2022-09-09T11:22:25.728Z,391.12
2022-09-09T11:27:32.950Z,391.49
2022-09-09T11:32:40.167Z,391.50
2022-09-09T11:37:47.301Z,391.15
2022-09-09T11:42:54.575Z,390.96
2022-09-09T11:48:01.774Z,389.31
2022-09-09T11:53:08.940Z,387.53
2022-09-09T11:58:16.195Z,386.47
2022-09-09T12:03:23.429Z,387.01
2022-09-09T12:08:30.687Z,387.81
2022-09-09T12:13:37.859Z,388.17
2022-09-09T12:18:45.186Z,388.19
2022-09-09T12:23:52.326Z,388.09
2022-09-09T12:28:59.525Z,388.38
2022-09-09T12:34:06.756Z,389.24
2022-09-09T12:39:13.943Z,390.64
2022-09-09T12:44:21.174Z,390.49
2022-09-09T12:49:28.393Z,390.86
2022-09-09T12:54:35.721Z,391.25
2022-09-09T12:59:42.944Z,391.54
2022-09-09T13:04:50.139Z,392.34
2022-09-09T13:09:57.297Z,392.58
2022-09-09T13:15:04.492Z,392.89
2022-09-09T13:20:11.715Z,392.54
2022-09-09T13:25:18.873Z,392.93
2022-09-09T13:30:26.091Z,393.23
2022-09-09T13:35:33.257Z,393.64
2022-09-09T13:40:40.428Z,393.87
2022-09-09T13:45:47.747Z,394.20
2022-09-09T13:50:54.899Z,394.54
2022-09-09T13:56:02.062Z,395.44
2022-09-09T14:01:09.289Z,396.31
2022-09-09T14:06:16.466Z,396.81
2022-09-09T14:11:23.621Z,397.19
2022-09-09T14:16:30.825Z,397.85
2022-09-09T14:21:38.119Z,397.44
2022-09-09T14:26:45.289Z,397.10
2022-09-09T14:31:52.548Z,397.44
2022-09-09T14:36:59.849Z,398.27
2022-09-09T14:42:07.029Z,399.20
2022-09-09T14:47:14.276Z,399.59
2022-09-09T14:52:21.550Z,399.18
2022-09-09T14:57:28.779Z,399.33
2022-09-09T15:02:36.040Z,398.58
2022-09-09T15:07:43.231Z,398.71
2022-09-09T15:12:50.473Z,398.41
2022-09-09T15:17:57.771Z,398.03
2022-09-09T15:23:04.977Z,398.02
2022-09-09T15:28:12.121Z,398.59
2022-09-09T15:33:19.324Z,398.40
2022-09-09T15:38:26.620Z,398.66
2022-09-09T15:43:33.847Z,398.93
2022-09-09T15:48:41.047Z,399.05
2022-09-09T15:53:48.258Z,399.36
2022-09-09T15:58:55.413Z,400.23
2022-09-09T16:04:02.664Z,400.02
2022-09-09T16:09:09.937Z,400.29
2022-09-09T16:14:17.182Z,400.51
2022-09-09T16:19:24.357Z,400.23
2022-09-09T16:24:31.578Z,399.14
2022-09-09T16:29:38.730Z,399.48
2022-09-09T16:34:45.913Z,399.10
2022-09-09T16:39:53.171Z,398.67
2022-09-09T16:45:00.278Z,398.78
2022-09-09T16:50:07.471Z,399.64
2022-09-09T16:55:14.675Z,398.61
2022-09-09T17:00:21.841Z,397.91
2022-09-09T17:05:29.025Z,398.18
2022-09-09T17:10:36.235Z,396.94
2022-09-09T17:15:43.493Z,396.89
2022-09-09T17:20:50.724Z,395.90
2022-09-09T17:25:58.001Z,394.77
2022-09-09T17:31:05.232Z,394.64
2022-09-09T17:36:12.434Z,394.36
2022-09-09T17:41:19.653Z,394.16
2022-09-09T17:46:26.877Z,393.87
2022-09-09T17:51:34.139Z,392.97
2022-09-09T17:56:41.402Z,393.12
2022-09-09T18:01:48.561Z,392.95
2022-09-09T18:06:55.745Z,392.59
2022-09-09T18:12:02.959Z,391.87
2022-09-09T18:17:10.115Z,391.16
2022-09-09T18:22:17.379Z,391.11
2022-09-09T18:27:24.674Z,389.41
2022-09-09T18:32:31.876Z,388.43
2022-09-09T18:37:39.062Z,386.67
2022-09-09T18:42:46.511Z,387.43
2022-09-09T18:47:54.011Z,386.80
2022-09-09T18:53:01.723Z,385.96
2022-09-09T18:58:09.470Z,384.78
2022-09-09T19:03:17.055Z,383.56
2022-09-09T19:08:24.664Z,382.82
2022-09-09T19:13:32.176Z,381.85
2022-09-09T19:18:39.686Z,380.15
2022-09-09T19:23:47.198Z,380.92
2022-09-09T19:28:54.540Z,381.92
2022-09-09T19:34:01.780Z,381.35
2022-09-09T19:39:09.052Z,382.02
2022-09-09T19:44:16.332Z,382.30
2022-09-09T19:49:23.471Z,382.08
2022-09-09T19:54:30.680Z,381.40
2022-09-09T19:59:37.881Z,381.23
2022-09-09T20:04:45.052Z,380.37
2022-09-09T20:09:52.281Z,380.79
2022-09-09T20:14:59.544Z,380.52
2022-09-09T20:20:06.671Z,378.69
2022-09-09T20:25:13.864Z,378.39
2022-09-09T20:30:21.071Z,377.98
2022-09-09T20:35:28.275Z,379.09
2022-09-09T20:40:35.518Z,378.71
2022-09-09T20:45:42.715Z,377.84
2022-09-09T20:50:49.924Z,376.99
2022-09-09T20:55:57.069Z,376.22
2022-09-09T21:01:04.321Z,375.22
2022-09-09T21:06:11.446Z,374.21
2022-09-09T21:11:18.636Z,374.18
2022-09-09T21:16:25.842Z,373.86
2022-09-09T21:21:33.000Z,375.44
2022-09-09T21:26:40.179Z,375.00
2022-09-09T21:31:47.447Z,376.50
2022-09-09T21:36:54.563Z,376.31
2022-09-09T21:42:01.754Z,375.94
2022-09-09T21:47:08.970Z,375.38
2022-09-09T21:52:16.397Z,376.46
2022-09-09T21:57:25.105Z,376.75
2022-09-09T22:02:30.988Z,376.22
2022-09-09T22:07:38.016Z,375.48
2022-09-09T22:12:45.270Z,374.91
2022-09-09T22:17:52.487Z,375.00
2022-09-09T22:22:59.628Z,375.36
2022-09-09T22:28:06.811Z,374.57
2022-09-09T22:33:14.013Z,374.35
2022-09-09T22:38:21.171Z,374.91
2022-09-09T22:43:28.389Z,374.78
2022-09-09T22:48:35.619Z,374.65
2022-09-09T22:53:42.823Z,376.16
2022-09-09T22:58:50.022Z,376.81
2022-09-09T23:03:57.271Z,376.74
2022-09-09T23:09:04.434Z,376.71
2022-09-09T23:14:11.639Z,376.24
2022-09-09T23:19:18.889Z,375.03
2022-09-09T23:24:26.046Z,375.47
2022-09-09T23:29:33.361Z,375.42
2022-09-09T23:34:40.663Z,374.90
2022-09-09T23:39:47.982Z,374.83
2022-09-09T23:44:55.079Z,374.83
2022-09-09T23:50:02.311Z,374.55
2022-09-09T23:55:09.460Z,375.18
